Time;durP1;ratioP1;P1;durP2;ratioP2;P2;SDS_P1;SDS_P2;PMS_P1;PMS_P2;Temp;Humidity;BMP_temperature;BMP_pressure;BME280_temperature;BME280_humidity;BME280_pressure;Samples;Min_cycle;Max_cycle;Signal;HPM_P1;HPM_P2
2022/03/24 00:00:10;;;;;;;59.30;37.50;;;5.20;99.90;;;;;;5058910;28;20073;-85
2022/03/24 00:02:36;;;;;;;55.38;39.17;;;5.10;99.90;;;;;;5058861;28;20058;-85
2022/03/24 00:05:05;;;;;;;57.28;36.50;;;5.10;99.90;;;;;;5061087;28;20463;-85
2022/03/24 00:07:35;;;;;;;61.65;40.00;;;5.00;99.90;;;;;;5061711;28;20071;-85
2022/03/24 00:10:04;;;;;;;56.58;40.05;;;5.00;99.90;;;;;;5061983;28;20348;-85
2022/03/24 00:12:30;;;;;;;60.50;41.25;;;4.90;99.90;;;;;;5078901;28;20102;-85
2022/03/24 00:15:14;;;;;;;64.63;43.58;;;4.90;99.90;;;;;;5062757;28;20034;-86
2022/03/24 00:17:40;;;;;;;69.10;42.78;;;4.90;99.90;;;;;;5076606;28;20031;-85
2022/03/24 00:20:07;;;;;;;60.78;41.47;;;4.90;99.90;;;;;;5060747;28;20053;-85
2022/03/24 00:22:51;;;;;;;65.88;44.65;;;4.90;99.90;;;;;;5059120;28;20350;-86
2022/03/24 00:25:17;;;;;;;67.03;42.28;;;4.90;99.90;;;;;;5059757;28;20355;-85
2022/03/24 00:27:43;;;;;;;69.45;46.22;;;4.90;99.90;;;;;;5060131;28;20047;-85
2022/03/24 00:30:09;;;;;;;68.35;43.10;;;4.80;99.90;;;;;;5061794;28;20027;-85
2022/03/24 00:32:38;;;;;;;63.47;42.92;;;4.80;99.90;;;;;;5059152;28;20040;-85
2022/03/24 00:35:04;;;;;;;63.17;40.80;;;4.80;99.90;;;;;;5059018;28;20055;-85
2022/03/24 00:37:31;;;;;;;57.97;39.33;;;4.70;99.90;;;;;;5079441;28;20142;-85
2022/03/24 00:39:56;;;;;;;66.20;39.25;;;4.60;99.90;;;;;;5077533;28;20051;-86
2022/03/24 00:42:23;;;;;;;65.40;40.78;;;4.60;99.90;;;;;;5075820;28;20043;-85
2022/03/24 00:44:57;;;;;;;62.88;42.45;;;4.70;99.90;;;;;;5060212;28;20039;-86
2022/03/24 00:47:23;;;;;;;64.80;43.45;;;4.60;99.90;;;;;;5076120;28;20047;-85
2022/03/24 00:49:49;;;;;;;65.53;41.72;;;4.50;99.90;;;;;;5057860;28;20043;-85
2022/03/24 00:52:15;;;;;;;68.05;44.35;;;4.60;99.90;;;;;;5057106;28;20043;-85
2022/03/24 00:54:40;;;;;;;67.00;43.15;;;4.60;99.90;;;;;;5059963;28;20377;-85
2022/03/24 00:57:07;;;;;;;66.75;43.55;;;4.50;99.90;;;;;;5060329;28;20581;-84
2022/03/24 00:59:36;;;;;;;80.38;48.88;;;4.50;99.90;;;;;;5054510;28;20069;-85
2022/03/24 01:02:02;;;;;;;77.20;48.88;;;4.40;99.90;;;;;;5074518;28;20113;-86
2022/03/24 01:04:29;;;;;;;71.20;46.90;;;4.40;99.90;;;;;;5056691;28;20039;-85
2022/03/24 01:06:57;;;;;;;74.25;47.00;;;4.40;99.90;;;;;;5071963;28;20059;-84
2022/03/24 01:09:23;;;;;;;75.38;45.95;;;4.30;99.90;;;;;;5078048;28;20079;-85
2022/03/24 01:11:50;;;;;;;83.55;50.33;;;4.30;99.90;;;;;;5072692;28;20142;-84
2022/03/24 01:14:16;;;;;;;71.45;46.85;;;4.30;99.90;;;;;;5054777;28;20614;-85
2022/03/24 01:16:43;;;;;;;86.15;51.40;;;4.30;99.90;;;;;;5056231;28;20123;-85
2022/03/24 01:19:09;;;;;;;63.15;41.95;;;4.30;99.90;;;;;;5055187;28;20032;-85
2022/03/24 01:21:38;;;;;;;58.00;37.40;;;4.10;99.90;;;;;;5056940;28;20491;-84
2022/03/24 01:24:04;;;;;;;65.15;40.17;;;4.00;99.90;;;;;;5050448;28;20032;-85
2022/03/24 01:26:30;;;;;;;58.97;35.88;;;4.00;99.90;;;;;;5056440;28;20024;-85
2022/03/24 01:28:56;;;;;;;71.57;43.42;;;3.90;99.90;;;;;;5054225;28;20105;-85
2022/03/24 01:31:22;;;;;;;82.95;47.25;;;3.90;99.90;;;;;;5073974;28;20040;-86
2022/03/24 01:33:47;;;;;;;63.92;42.60;;;4.00;99.90;;;;;;5056581;28;20059;-85
2022/03/24 01:36:13;;;;;;;70.93;44.60;;;3.90;99.90;;;;;;5054597;28;20517;-85
2022/03/24 01:38:39;;;;;;;79.45;48.35;;;3.90;99.90;;;;;;5090222;28;20486;-85
2022/03/24 01:41:07;;;;;;;77.38;47.22;;;3.90;99.90;;;;;;5056848;28;20040;-85
2022/03/24 01:43:33;;;;;;;56.65;39.33;;;3.80;99.90;;;;;;5082060;28;20443;-84
2022/03/24 01:45:59;;;;;;;73.40;47.00;;;3.70;99.90;;;;;;5067976;28;20206;-85
2022/03/24 01:48:26;;;;;;;82.50;50.70;;;3.70;99.90;;;;;;5057216;28;20493;-85
2022/03/24 01:50:52;;;;;;;82.60;50.60;;;3.80;99.90;;;;;;5059031;28;20061;-84
2022/03/24 01:53:25;;;;;;;84.93;51.58;;;3.80;99.90;;;;;;5057386;28;20379;-85
2022/03/24 01:55:54;;;;;;;84.97;51.25;;;3.80;99.90;;;;;;5078065;28;20048;-84
2022/03/24 01:58:21;;;;;;;76.82;48.33;;;3.90;99.90;;;;;;5051968;28;20048;-84
2022/03/24 02:00:47;;;;;;;72.82;45.08;;;3.80;99.90;;;;;;5070839;28;20040;-85
2022/03/24 02:03:14;;;;;;;71.47;45.95;;;3.80;99.90;;;;;;5053599;28;20050;-86
2022/03/24 02:05:41;;;;;;;71.40;44.50;;;3.70;99.90;;;;;;5058601;28;20120;-84
2022/03/24 02:08:07;;;;;;;75.88;46.28;;;3.70;99.90;;;;;;5070729;28;20041;-84
2022/03/24 02:10:34;;;;;;;75.82;45.42;;;3.70;99.90;;;;;;5055140;28;20410;-85
2022/03/24 02:13:01;;;;;;;75.75;46.08;;;3.70;99.90;;;;;;5071907;28;20111;-84
2022/03/24 02:15:27;;;;;;;90.97;49.55;;;3.70;99.90;;;;;;5071354;28;20040;-85
2022/03/24 02:17:53;;;;;;;76.03;46.17;;;3.70;99.90;;;;;;5073393;28;20036;-84
2022/03/24 02:20:20;;;;;;;79.30;45.65;;;3.70;99.90;;;;;;5058370;28;20128;-85
2022/03/24 02:22:48;;;;;;;83.22;47.22;;;3.60;99.90;;;;;;5071444;28;20447;-85
2022/03/24 02:25:13;;;;;;;81.32;50.53;;;3.60;99.90;;;;;;5074543;28;20097;-84
2022/03/24 02:27:40;;;;;;;69.97;40.22;;;3.70;99.90;;;;;;5059473;28;20048;-84
2022/03/24 02:30:07;;;;;;;75.28;45.30;;;3.40;99.90;;;;;;5077654;28;20046;-84
2022/03/24 02:32:33;;;;;;;81.45;46.58;;;3.40;99.90;;;;;;5056109;28;20033;-84
2022/03/24 02:34:59;;;;;;;77.28;48.17;;;3.40;99.90;;;;;;5075754;28;20040;-84
2022/03/24 02:37:25;;;;;;;83.82;48.15;;;3.30;99.90;;;;;;5074655;28;20520;-85
2022/03/24 02:40:01;;;;;;;74.40;45.30;;;3.20;99.90;;;;;;5055566;28;20052;-84
2022/03/24 02:42:29;;;;;;;82.35;50.05;;;3.20;99.90;;;;;;5050263;28;20477;-84
2022/03/24 02:44:57;;;;;;;73.47;44.13;;;3.20;99.90;;;;;;5054979;28;20040;-84
2022/03/24 02:47:23;;;;;;;75.82;46.78;;;3.20;99.90;;;;;;5076432;28;20451;-85
2022/03/24 02:49:51;;;;;;;82.38;49.88;;;3.20;99.90;;;;;;5076651;28;20053;-84
2022/03/24 02:52:20;;;;;;;93.38;53.08;;;3.10;99.90;;;;;;5073807;28;20040;-84
2022/03/24 02:54:49;;;;;;;82.10;48.20;;;3.20;99.90;;;;;;5058271;28;20107;-84
2022/03/24 02:57:18;;;;;;;87.45;49.20;;;3.10;99.90;;;;;;5072199;28;20546;-84
2022/03/24 02:59:47;;;;;;;91.38;53.25;;;3.10;99.90;;;;;;5056481;28;20424;-85
2022/03/24 03:02:15;;;;;;;88.93;51.28;;;3.20;99.90;;;;;;5095830;27;20040;-84
2022/03/24 03:04:43;;;;;;;86.55;49.80;;;3.10;99.90;;;;;;5056924;28;20105;-83
2022/03/24 03:07:09;;;;;;;74.90;44.63;;;3.20;99.90;;;;;;5077315;28;20319;-84
2022/03/24 03:09:37;;;;;;;80.32;43.60;;;3.10;99.90;;;;;;5057005;28;20107;-84
2022/03/24 03:12:03;;;;;;;78.07;46.83;;;3.10;99.90;;;;;;5076760;28;20483;-85
2022/03/24 03:14:29;;;;;;;75.10;45.63;;;3.10;99.90;;;;;;5075529;28;20048;-85
2022/03/24 03:16:56;;;;;;;71.38;44.83;;;3.10;99.90;;;;;;5072680;28;20081;-84
2022/03/24 03:19:22;;;;;;;97.03;54.35;;;3.00;99.90;;;;;;5083367;27;20491;-84
2022/03/24 03:21:49;;;;;;;95.00;53.97;;;3.10;99.90;;;;;;5075108;28;20867;-84
2022/03/24 03:24:16;;;;;;;78.07;45.55;;;3.10;99.90;;;;;;5073159;28;20043;-84
2022/03/24 03:26:42;;;;;;;69.22;42.08;;;3.00;99.90;;;;;;5073328;28;20142;-84
2022/03/24 03:29:12;;;;;;;64.70;39.63;;;3.00;99.90;;;;;;5052919;28;20051;-84
2022/03/24 03:31:37;;;;;;;70.13;41.70;;;2.90;99.90;;;;;;5090198;28;20036;-84
2022/03/24 03:34:05;;;;;;;78.13;47.88;;;2.80;99.90;;;;;;5057767;28;20495;-84
2022/03/24 03:36:35;;;;;;;81.40;49.47;;;2.90;99.90;;;;;;5058114;28;20310;-84
2022/03/24 03:39:02;;;;;;;83.00;48.50;;;2.90;99.90;;;;;;5059217;28;20186;-84
2022/03/24 03:41:28;;;;;;;91.95;51.53;;;2.90;99.90;;;;;;5071774;28;20040;-84
2022/03/24 03:43:55;;;;;;;88.13;49.65;;;2.80;99.90;;;;;;5056963;28;20040;-84
2022/03/24 03:46:21;;;;;;;79.00;46.92;;;2.80;99.90;;;;;;5074990;28;20036;-83
2022/03/24 03:48:47;;;;;;;84.93;48.45;;;2.80;99.90;;;;;;5070825;28;20206;-84
2022/03/24 03:51:13;;;;;;;97.72;53.88;;;2.80;99.90;;;;;;5073290;28;20055;-84
2022/03/24 03:53:40;;;;;;;105.65;56.25;;;2.90;99.90;;;;;;5067045;28;20463;-84
2022/03/24 03:56:07;;;;;;;80.65;47.22;;;2.80;99.90;;;;;;5074562;28;20475;-84
2022/03/24 03:58:35;;;;;;;82.10;44.97;;;2.80;99.90;;;;;;5057635;28;20410;-83
2022/03/24 04:01:02;;;;;;;60.03;36.75;;;2.70;99.90;;;;;;5074709;28;20152;-83
2022/03/24 04:03:30;;;;;;;69.38;41.60;;;2.50;99.90;;;;;;5076820;28;20506;-83
2022/03/24 04:05:58;;;;;;;83.53;45.53;;;2.50;99.90;;;;;;5054087;28;20044;-84
2022/03/24 04:08:24;;;;;;;96.80;52.15;;;2.60;99.90;;;;;;5073452;28;20041;-84
2022/03/24 04:10:50;;;;;;;108.18;56.42;;;2.60;99.90;;;;;;5055820;28;20031;-84
2022/03/24 04:13:17;;;;;;;114.93;60.45;;;2.50;99.90;;;;;;5054009;28;20047;-84
2022/03/24 04:15:43;;;;;;;123.15;61.80;;;2.60;99.90;;;;;;5053298;28;20032;-83
2022/03/24 04:18:09;;;;;;;124.45;64.80;;;2.60;99.90;;;;;;5056170;28;20054;-84
2022/03/24 04:20:39;;;;;;;96.68;54.08;;;2.60;99.90;;;;;;5052586;28;20671;-84
2022/03/24 04:23:06;;;;;;;110.32;59.05;;;2.60;99.90;;;;;;5054019;28;20513;-84
2022/03/24 04:25:32;;;;;;;108.68;58.83;;;2.60;99.90;;;;;;5078197;28;20401;-84
2022/03/24 04:27:59;;;;;;;95.25;53.78;;;2.50;99.90;;;;;;5056793;28;20059;-84
2022/03/24 04:30:31;;;;;;;97.85;53.92;;;2.50;99.90;;;;;;5073938;28;20035;-84
2022/03/24 04:32:59;;;;;;;110.97;59.60;;;2.50;99.90;;;;;;5071061;28;20058;-84
2022/03/24 04:35:25;;;;;;;107.38;59.90;;;2.50;99.90;;;;;;5057309;28;20040;-84
2022/03/24 04:37:52;;;;;;;117.60;62.30;;;2.50;99.90;;;;;;5078233;28;20032;-85
2022/03/24 04:40:19;;;;;;;115.15;59.45;;;2.60;99.90;;;;;;5074030;28;20043;-84
2022/03/24 04:42:48;;;;;;;121.22;61.72;;;2.50;99.90;;;;;;5054749;28;20046;-85
2022/03/24 04:45:14;;;;;;;105.32;58.88;;;2.50;99.90;;;;;;5054365;28;20551;-84
2022/03/24 04:47:43;;;;;;;113.40;60.40;;;2.60;99.90;;;;;;5055571;28;20274;-86
2022/03/24 04:50:13;;;;;;;98.85;53.08;;;2.50;99.90;;;;;;5058326;28;20112;-86
2022/03/24 04:52:39;;;;;;;83.65;45.72;;;2.40;99.90;;;;;;5058844;28;20071;-86
2022/03/24 04:55:07;;;;;;;76.82;43.13;;;2.30;99.90;;;;;;5055919;28;20440;-87
2022/03/24 04:57:33;;;;;;;82.75;47.22;;;2.30;99.90;;;;;;5056973;28;20425;-86
2022/03/24 05:00:00;;;;;;;104.90;55.08;;;2.20;99.90;;;;;;5056488;28;20079;-85
2022/03/24 05:02:26;;;;;;;126.10;59.30;;;2.30;99.90;;;;;;5078486;28;20094;-86
2022/03/24 05:04:54;;;;;;;106.72;55.45;;;2.30;99.90;;;;;;5093398;27;20032;-85
2022/03/24 05:07:30;;;;;;;98.82;52.90;;;2.40;99.90;;;;;;5052214;28;20224;-85
2022/03/24 05:09:56;;;;;;;98.75;53.33;;;2.30;99.90;;;;;;5054568;28;20059;-86
2022/03/24 05:12:21;;;;;;;101.22;53.63;;;2.30;99.90;;;;;;5056850;28;20035;-85
2022/03/24 05:14:48;;;;;;;76.70;44.20;;;2.20;99.90;;;;;;5053830;28;20045;-87
2022/03/24 05:17:14;;;;;;;66.63;36.85;;;2.20;99.90;;;;;;5053179;28;20047;-87
2022/03/24 05:19:40;;;;;;;91.35;49.72;;;2.10;99.90;;;;;;5055399;28;20036;-87
2022/03/24 05:22:06;;;;;;;107.88;55.42;;;2.20;99.90;;;;;;5055778;28;20090;-86
2022/03/24 05:24:32;;;;;;;115.20;59.35;;;2.20;99.90;;;;;;5056810;28;20044;-86
2022/03/24 05:27:01;;;;;;;85.10;48.92;;;2.20;99.90;;;;;;5053216;28;20044;-87
2022/03/24 05:29:26;;;;;;;76.68;46.08;;;2.20;99.90;;;;;;5069446;28;20423;-86
2022/03/24 05:31:52;;;;;;;84.18;44.78;;;2.20;99.90;;;;;;5053376;28;20028;-86
2022/03/24 05:34:19;;;;;;;82.95;46.53;;;2.10;99.90;;;;;;5055102;28;20040;-86
2022/03/24 05:36:48;;;;;;;79.30;46.28;;;2.20;99.90;;;;;;5074083;28;20079;-86
2022/03/24 05:39:14;;;;;;;90.35;52.25;;;2.10;99.90;;;;;;5055321;28;20082;-87
2022/03/24 05:41:41;;;;;;;101.00;53.80;;;2.10;99.90;;;;;;5073934;28;20056;-87
2022/03/24 05:44:09;;;;;;;110.30;59.28;;;2.20;99.90;;;;;;5057470;28;20462;-87
2022/03/24 05:46:41;;;;;;;130.18;63.08;;;2.20;99.90;;;;;;5052898;28;20046;-86
2022/03/24 05:49:09;;;;;;;101.43;54.92;;;2.30;99.90;;;;;;5076591;28;20044;-86
2022/03/24 05:51:35;;;;;;;117.35;61.38;;;2.30;99.90;;;;;;5058004;28;20043;-87
2022/03/24 05:54:01;;;;;;;116.03;61.63;;;2.40;99.90;;;;;;5096666;27;20032;-87
2022/03/24 05:56:27;;;;;;;114.28;58.75;;;2.40;99.90;;;;;;5079167;28;20555;-87
2022/03/24 05:58:53;;;;;;;105.68;57.25;;;2.50;99.90;;;;;;5059506;28;20150;-86
2022/03/24 06:01:23;;;;;;;104.40;57.53;;;2.50;99.90;;;;;;5074269;28;20066;-85
2022/03/24 06:03:52;;;;;;;116.88;59.00;;;2.50;99.90;;;;;;5075417;28;20128;-86
2022/03/24 06:06:20;;;;;;;97.20;51.90;;;2.50;99.90;;;;;;5078240;28;20048;-86
2022/03/24 06:08:52;;;;;;;100.40;54.33;;;2.70;99.90;;;;;;5060833;28;20051;-86
2022/03/24 06:11:19;;;;;;;101.22;55.47;;;2.70;99.90;;;;;;5060682;28;20059;-86
2022/03/24 06:13:46;;;;;;;97.88;53.47;;;2.80;99.90;;;;;;5076779;28;20069;-87
2022/03/24 06:16:13;;;;;;;86.10;49.20;;;2.80;99.90;;;;;;5076082;28;20583;-87
2022/03/24 06:18:42;;;;;;;77.88;46.58;;;2.80;99.90;;;;;;5080486;28;20109;-87
2022/03/24 06:21:09;;;;;;;81.25;47.25;;;2.80;99.90;;;;;;5096077;27;20043;-87
2022/03/24 06:23:35;;;;;;;82.80;47.88;;;2.80;99.90;;;;;;5064024;28;20032;-86
2022/03/24 06:26:01;;;;;;;89.85;50.85;;;2.90;99.90;;;;;;5064499;28;20514;-86
2022/03/24 06:28:27;;;;;;;92.60;52.90;;;2.90;99.90;;;;;;5057979;28;20035;-86
2022/03/24 06:30:53;;;;;;;84.47;49.53;;;3.00;99.90;;;;;;5076646;28;20609;-86
2022/03/24 06:33:19;;;;;;;96.70;53.70;;;3.00;99.90;;;;;;5058528;28;20078;-89
2022/03/24 06:35:46;;;;;;;113.80;61.03;;;3.20;99.90;;;;;;5058878;28;20036;-86
2022/03/24 06:38:16;;;;;;;107.50;57.70;;;3.30;99.90;;;;;;5076875;28;20590;-86
2022/03/24 06:40:42;;;;;;;106.13;59.03;;;3.40;99.90;;;;;;5059472;28;20040;-87
2022/03/24 06:43:18;;;;;;;88.15;53.35;;;3.50;99.90;;;;;;5073360;28;20097;-86
2022/03/24 06:45:44;;;;;;;89.50;50.10;;;3.60;99.90;;;;;;5072759;28;20042;-86
2022/03/24 06:48:09;;;;;;;94.97;54.00;;;3.70;99.90;;;;;;5060063;28;20547;-86
2022/03/24 06:50:36;;;;;;;87.50;51.97;;;3.80;99.90;;;;;;5056547;28;20032;-86
2022/03/24 06:53:03;;;;;;;89.35;51.28;;;3.90;99.90;;;;;;5076204;28;20040;-85
2022/03/24 06:55:29;;;;;;;92.22;54.53;;;4.10;99.90;;;;;;5057935;28;20040;-84
2022/03/24 06:58:02;;;;;;;102.93;56.42;;;4.20;99.90;;;;;;5090922;27;20101;-85
2022/03/24 07:00:28;;;;;;;98.55;53.78;;;4.40;99.90;;;;;;5096759;27;20493;-84
2022/03/24 07:02:54;;;;;;;118.43;62.03;;;4.40;99.90;;;;;;5060904;28;20039;-84
2022/03/24 07:05:21;;;;;;;93.68;54.65;;;4.50;99.90;;;;;;5082961;28;20119;-85
2022/03/24 07:07:47;;;;;;;116.93;63.97;;;4.70;99.90;;;;;;5078203;28;20070;-84
2022/03/24 07:10:13;;;;;;;103.20;57.97;;;4.80;99.90;;;;;;5075144;28;20078;-85
2022/03/24 07:12:44;;;;;;;122.93;65.32;;;5.10;99.90;;;;;;5060643;28;20032;-85
2022/03/24 07:15:14;;;;;;;;;;;5.20;99.90;;;;;;5062645;28;20040;-84
2022/03/24 07:17:39;;;;;;;119.00;63.33;;;5.30;99.90;;;;;;5078800;28;19920;-84
2022/03/24 07:20:07;;;;;;;117.30;65.38;;;5.50;99.90;;;;;;5061954;28;20050;-84
2022/03/24 07:22:33;;;;;;;112.90;64.72;;;5.60;99.90;;;;;;5060456;28;20063;-84
2022/03/24 07:24:59;;;;;;;102.65;62.10;;;5.70;99.90;;;;;;5060831;28;20039;-83
2022/03/24 07:27:25;;;;;;;103.95;61.92;;;5.90;99.90;;;;;;5078191;28;20069;-84
2022/03/24 07:29:51;;;;;;;108.25;62.55;;;6.20;99.90;;;;;;5080114;28;20027;-84
2022/03/24 07:32:17;;;;;;;112.38;67.65;;;6.30;99.90;;;;;;5058346;28;20663;-84
2022/03/24 07:34:42;;;;;;;110.88;64.40;;;6.60;99.90;;;;;;5058215;28;20032;-84
2022/03/24 07:37:08;;;;;;;109.07;62.05;;;6.70;99.90;;;;;;5075804;28;20050;-83
2022/03/24 07:39:34;;;;;;;98.78;61.03;;;6.90;99.90;;;;;;5059828;28;20046;-83
2022/03/24 07:41:59;;;;;;;96.25;58.95;;;7.10;99.90;;;;;;5080296;28;20528;-83
2022/03/24 07:44:25;;;;;;;93.07;58.92;;;7.20;99.90;;;;;;5077128;28;20059;-84
2022/03/24 07:46:57;;;;;;;88.18;57.55;;;7.40;99.90;;;;;;5063225;28;20241;-83
2022/03/24 07:49:23;;;;;;;88.80;58.10;;;7.50;99.90;;;;;;5075281;28;20342;-84
2022/03/24 07:51:52;;;;;;;93.13;55.85;;;7.70;99.90;;;;;;5063207;28;20078;-84
2022/03/24 07:54:40;;;;;;;87.53;56.80;;;7.80;99.90;;;;;;5062470;28;20111;-83
2022/03/24 07:57:10;;;;;;;80.28;54.10;;;8.00;99.90;;;;;;5064953;28;20056;-84
2022/03/24 07:59:38;;;;;;;77.05;52.78;;;8.10;99.90;;;;;;5068193;28;20059;-84
2022/03/24 08:02:06;;;;;;;80.50;52.90;;;8.30;99.90;;;;;;5072652;28;20032;-84
2022/03/24 08:04:41;;;;;;;72.05;48.90;;;8.40;99.90;;;;;;5053250;28;20344;-83
2022/03/24 08:07:07;;;;;;;73.30;48.95;;;8.50;99.90;;;;;;5061150;28;20151;-84
2022/03/24 08:09:38;;;;;;;73.25;49.40;;;8.70;99.90;;;;;;5064320;28;20119;-84
2022/03/24 08:12:08;;;;;;;75.85;49.90;;;8.90;99.90;;;;;;5062582;28;20039;-84
2022/03/24 08:14:34;;;;;;;70.70;47.90;;;9.20;99.90;;;;;;5064248;28;20089;-84
2022/03/24 08:17:01;;;;;;;64.05;43.63;;;9.30;99.90;;;;;;5075217;28;20035;-83
2022/03/24 08:19:29;;;;;;;71.47;47.15;;;9.40;81.70;;;;;;5064416;28;20118;-84
2022/03/24 08:21:57;;;;;;;71.40;48.67;;;9.60;39.30;;;;;;5072261;28;20302;-84
2022/03/24 08:24:26;;;;;;;68.13;47.33;;;9.80;99.90;;;;;;5072045;28;20487;-84
2022/03/24 08:26:54;;;;;;;68.88;44.55;;;10.00;51.10;;;;;;5076294;28;20035;-84
2022/03/24 08:29:23;;;;;;;60.30;42.53;;;10.20;1.00;;;;;;5056975;28;20384;-85
2022/03/24 08:31:51;;;;;;;67.00;45.58;;;10.40;1.00;;;;;;5060468;28;20149;-84
2022/03/24 08:34:21;;;;;;;57.40;40.30;;;10.50;1.00;;;;;;5073608;28;20039;-84
2022/03/24 08:36:47;;;;;;;60.42;39.30;;;10.70;99.90;;;;;;5060235;28;20054;-84
2022/03/24 08:39:16;;;;;;;54.20;36.42;;;10.80;99.90;;;;;;5063163;28;20044;-84
2022/03/24 08:41:42;;;;;;;52.72;35.08;;;10.90;99.90;;;;;;5061879;28;20106;-84
2022/03/24 08:44:08;;;;;;;51.33;37.35;;;10.90;99.90;;;;;;5076271;28;20050;-85
2022/03/24 08:46:33;;;;;;;56.63;39.08;;;11.10;1.00;;;;;;5060374;28;20473;-84
2022/03/24 08:49:00;;;;;;;56.13;38.85;;;11.30;99.90;;;;;;5057428;28;20027;-85
2022/03/24 08:51:29;;;;;;;52.50;38.33;;;11.30;99.90;;;;;;5062408;28;20181;-84
2022/03/24 08:53:57;;;;;;;54.35;36.60;;;11.50;99.90;;;;;;5077311;28;20364;-84
2022/03/24 08:56:24;;;;;;;51.10;35.90;;;11.70;1.00;;;;;;5074529;28;20028;-84
2022/03/24 08:58:56;;;;;;;49.33;34.45;;;11.70;99.90;;;;;;5059060;28;20354;-85
2022/03/24 09:01:30;;;;;;;54.28;36.38;;;11.90;1.00;;;;;;5060455;28;20420;-85
2022/03/24 09:03:55;;;;;;;47.72;35.28;;;12.00;1.00;;;;;;5055792;28;20431;-85
2022/03/24 09:06:22;;;;;;;52.20;36.75;;;12.10;99.90;;;;;;5076285;28;20050;-85
2022/03/24 09:08:53;;;;;;;59.25;35.45;;;12.30;1.00;;;;;;5056403;28;20036;-84
2022/03/24 09:11:24;;;;;;;49.70;35.08;;;12.30;99.90;;;;;;5077190;28;20051;-86
2022/03/24 09:13:56;;;;;;;52.05;34.92;;;12.50;99.90;;;;;;5057881;28;20664;-84
2022/03/24 09:16:28;;;;;;;53.75;35.75;;;12.60;99.90;;;;;;5088708;28;20054;-85
2022/03/24 09:18:53;;;;;;;48.47;34.47;;;12.70;99.90;;;;;;5059949;28;20258;-84
2022/03/24 09:21:22;;;;;;;48.50;32.50;;;12.80;99.90;;;;;;5074671;28;20130;-86
2022/03/24 09:23:48;;;;;;;47.40;33.40;;;12.90;99.90;;;;;;5077493;28;20040;-85
2022/03/24 09:26:17;;;;;;;47.08;33.92;;;13.10;99.90;;;;;;5079054;28;20051;-86
2022/03/24 09:28:42;;;;;;;50.80;35.13;;;13.10;99.90;;;;;;5043930;28;20039;-86
2022/03/24 09:31:08;;;;;;;50.08;34.38;;;13.20;99.90;;;;;;5065683;28;20099;-85
2022/03/24 09:33:37;;;;;;;54.97;36.20;;;13.20;99.90;;;;;;5064696;28;20501;-85
2022/03/24 09:36:05;;;;;;;51.30;36.55;;;13.50;99.90;;;;;;5079245;28;20085;-85
2022/03/24 09:38:37;;;;;;;56.63;36.83;;;13.70;99.90;;;;;;5065528;28;20519;-86
2022/03/24 09:41:09;;;;;;;50.25;35.42;;;13.80;1.00;;;;;;5063649;28;20105;-85
2022/03/24 09:43:39;;;;;;;50.05;35.92;;;14.00;99.90;;;;;;5071145;28;20531;-85
2022/03/24 09:46:05;;;;;;;52.25;36.10;;;14.00;99.90;;;;;;5071730;28;20039;-85
2022/03/24 09:48:33;;;;;;;52.90;35.67;;;14.00;99.90;;;;;;5062361;28;20112;-85
2022/03/24 09:50:59;;;;;;;54.65;37.28;;;14.30;99.90;;;;;;5059975;28;20501;-85
2022/03/24 09:53:27;;;;;;;57.15;36.20;;;14.30;1.00;;;;;;5080064;28;20031;-85
2022/03/24 09:55:56;;;;;;;56.67;38.30;;;14.30;1.00;;;;;;5065919;28;20374;-85
2022/03/24 09:58:27;;;;;;;57.47;40.15;;;14.50;1.00;;;;;;5054744;28;20066;-86
2022/03/24 10:01:03;;;;;;;56.03;40.13;;;14.80;99.90;;;;;;5080010;28;20396;-85
2022/03/24 10:03:32;;;;;;;61.80;41.63;;;14.90;9.70;;;;;;5075295;28;20051;-86
2022/03/24 10:06:04;;;;;;;60.85;39.83;;;15.10;52.50;;;;;;5060452;28;20442;-86
2022/03/24 10:08:36;;;;;;;56.05;41.35;;;14.90;1.00;;;;;;5064214;28;20052;-85
2022/03/24 10:11:16;;;;;;;63.88;42.05;;;15.20;1.00;;;;;;5077334;28;20080;-85
2022/03/24 10:13:46;;;;;;;60.17;39.47;;;15.30;1.00;;;;;;5064078;28;20487;-85
2022/03/24 10:16:41;;;;;;;56.60;39.63;;;15.20;99.90;;;;;;5069275;28;20214;-86
2022/03/24 10:19:13;;;;;;;63.22;41.20;;;15.10;99.90;;;;;;5058263;28;20036;-86
2022/03/24 10:21:58;;;;;;;62.88;43.20;;;15.30;99.90;;;;;;5077931;28;20459;-87
2022/03/24 10:24:24;;;;;;;60.85;41.13;;;15.70;1.00;;;;;;5063972;28;20031;-86
2022/03/24 10:27:00;;;;;;;54.63;37.85;;;15.70;99.90;;;;;;5062719;28;20034;-86
2022/03/24 10:29:27;;;;;;;53.60;39.60;;;15.60;99.90;;;;;;5066398;28;20049;-85
2022/03/24 10:32:03;;;;;;;52.53;37.70;;;15.80;1.00;;;;;;5062228;28;20067;-86
2022/03/24 10:34:33;;;;;;;51.42;35.72;;;15.70;99.90;;;;;;5060780;28;20040;-86
2022/03/24 10:37:09;;;;;;;49.35;33.30;;;16.10;99.90;;;;;;5062611;28;20035;-86
2022/03/24 10:40:02;;;;;;;52.50;36.92;;;16.30;99.90;;;;;;5062943;28;20088;-87
2022/03/24 10:42:33;;;;;;;51.45;33.60;;;16.10;99.90;;;;;;5093718;27;20268;-87
2022/03/24 10:45:20;;;;;;;42.50;31.00;;;16.20;99.90;;;;;;5081259;28;20130;-86
2022/03/24 10:47:58;;;;;;;45.92;31.42;;;16.50;99.90;;;;;;5062615;28;20073;-86
2022/03/24 10:50:38;;;;;;;46.47;33.15;;;16.80;99.90;;;;;;5056225;28;20051;-87
2022/03/24 10:53:06;;;;;;;51.30;32.47;;;16.40;99.90;;;;;;5079019;28;20182;-86
2022/03/24 10:55:47;;;;;;;44.90;30.67;;;16.50;99.90;;;;;;5065514;28;20491;-86
2022/03/24 10:58:57;;;;;;;43.95;28.83;;;16.70;99.90;;;;;;5059856;28;20049;-87
2022/03/24 11:01:27;;;;;;;47.75;30.58;;;16.90;99.90;;;;;;5076660;28;20044;-87
2022/03/24 11:03:55;;;;;;;44.53;31.00;;;17.00;99.90;;;;;;5064339;28;20451;-85
2022/03/24 11:06:24;;;;;;;40.42;30.05;;;17.30;99.90;;;;;;5064654;28;20035;-87
2022/03/24 11:09:00;;;;;;;47.22;32.15;;;17.70;99.90;;;;;;5082193;28;20044;-87
2022/03/24 11:11:41;;;;;;;43.53;31.70;;;17.30;99.90;;;;;;5077516;28;20542;-87
2022/03/24 11:14:10;;;;;;;39.50;29.45;;;17.50;99.90;;;;;;5071974;28;20036;-86
2022/03/24 11:16:35;;;;;;;45.22;31.05;;;17.30;99.90;;;;;;5089557;27;20038;-87
2022/03/24 11:19:11;;;;;;;45.17;30.02;;;17.00;99.90;;;;;;5074778;28;20360;-87
2022/03/24 11:21:40;;;;;;;47.45;33.10;;;17.30;99.90;;;;;;5079284;28;20178;-87
2022/03/24 11:24:09;;;;;;;43.72;32.10;;;17.10;99.90;;;;;;5067531;28;20122;-87
2022/03/24 11:26:35;;;;;;;46.75;31.35;;;17.20;99.90;;;;;;5063792;28;20134;-87
2022/03/24 11:29:09;;;;;;;44.65;32.05;;;17.60;99.90;;;;;;5072518;28;20040;-86
2022/03/24 11:31:37;;;;;;;45.65;30.38;;;17.70;99.90;;;;;;5063271;28;20040;-87
2022/03/24 11:34:04;;;;;;;44.67;30.92;;;17.30;99.90;;;;;;5074566;28;20035;-87
2022/03/24 11:36:31;;;;;;;43.13;28.92;;;17.50;99.90;;;;;;5061524;28;20196;-88
2022/03/24 11:38:59;;;;;;;45.97;28.38;;;18.00;99.90;;;;;;5075779;28;20556;-88
2022/03/24 11:41:43;;;;;;;39.88;28.60;;;18.30;99.90;;;;;;5061576;28;20032;-87
2022/03/24 11:44:34;;;;;;;41.58;27.48;;;18.10;99.90;;;;;;5062560;28;20079;-87
2022/03/24 11:47:00;;;;;;;40.22;29.67;;;18.40;99.90;;;;;;5076294;28;20040;-87
2022/03/24 11:49:31;;;;;;;39.67;29.73;;;17.90;99.90;;;;;;5058539;28;20501;-87
2022/03/24 11:51:57;;;;;;;43.30;29.50;;;18.40;99.90;;;;;;5056560;28;20050;-87
2022/03/24 11:54:34;;;;;;;41.78;29.95;;;18.00;99.90;;;;;;5081095;28;20051;-87
2022/03/24 11:57:22;;;;;;;42.10;31.17;;;17.90;99.90;;;;;;5064337;28;20040;-87
2022/03/24 12:00:10;;;;;;;39.97;29.20;;;18.60;99.90;;;;;;5060005;28;20077;-88
2022/03/24 12:02:41;;;;;;;46.65;31.20;;;18.70;99.90;;;;;;5059308;28;20089;-87
2022/03/24 12:05:12;;;;;;;47.63;31.20;;;19.00;99.90;;;;;;5065024;28;20166;-88
2022/03/24 12:07:41;;;;;;;43.97;31.30;;;18.90;99.90;;;;;;5091301;27;20036;-88
2022/03/24 12:10:16;;;;;;;43.58;29.65;;;19.20;99.90;;;;;;5062856;28;20062;-88
2022/03/24 12:13:22;;;;;;;40.95;28.52;;;18.40;99.90;;;;;;5089380;27;20040;-88
2022/03/24 12:16:11;;;;;;;37.28;28.60;;;18.20;99.90;;;;;;5065182;28;20036;-87
2022/03/24 12:18:43;;;;;;;40.70;28.52;;;17.80;99.90;;;;;;5059574;28;20048;-87
2022/03/24 12:21:37;;;;;;;42.78;28.60;;;17.80;99.90;;;;;;5056364;28;20133;-88
2022/03/24 12:24:06;;;;;;;38.15;27.63;;;18.10;99.90;;;;;;5078781;28;20534;-88
2022/03/24 12:26:51;;;;;;;40.70;29.63;;;18.60;99.90;;;;;;5060149;28;20059;-89
2022/03/24 12:29:30;;;;;;;45.83;30.42;;;18.80;99.90;;;;;;5072592;28;20123;-88
2022/03/24 12:32:10;;;;;;;40.72;29.80;;;18.20;99.90;;;;;;5062201;28;20279;-87
2022/03/24 12:34:38;;;;;;;38.72;29.95;;;18.30;99.90;;;;;;5081115;28;20059;-87
2022/03/24 12:37:30;;;;;;;40.50;30.05;;;18.30;99.90;;;;;;5055475;28;20039;-89
2022/03/24 12:40:13;;;;;;;42.92;29.15;;;18.70;99.90;;;;;;5062857;28;20270;-88
2022/03/24 12:42:44;;;;;;;37.00;28.48;;;18.80;99.90;;;;;;5061300;28;20127;-87